createdAt,value
2022-10-11T00:01:30.354Z,100.00
2022-10-11T00:04:01.477Z,100.00
2022-10-11T00:06:31.833Z,100.00
2022-10-11T00:09:04.927Z,100.00
2022-10-11T00:11:35.384Z,100.00
2022-10-11T00:14:05.704Z,100.00
2022-10-11T00:16:41.114Z,100.00
2022-10-11T00:21:57.104Z,100.00
2022-10-11T00:24:27.247Z,100.00
2022-10-11T00:26:59.345Z,100.00
2022-10-11T00:29:29.732Z,100.00
2022-10-11T00:32:01.434Z,100.00
2022-10-11T00:34:32.580Z,100.00
2022-10-11T00:37:06.014Z,100.00
2022-10-11T00:39:36.768Z,100.00
2022-10-11T00:42:10.446Z,100.00
2022-10-11T00:44:43.288Z,100.00
2022-10-11T00:47:18.538Z,100.00
2022-10-11T00:49:53.812Z,100.00
2022-10-11T00:52:33.656Z,100.00
2022-10-11T00:55:09.125Z,100.00
2022-10-11T00:57:42.919Z,100.00
2022-10-11T01:00:17.456Z,100.00
2022-10-11T01:02:48.531Z,100.00
2022-10-11T01:05:29.537Z,100.00
2022-10-11T01:08:07.755Z,100.00
2022-10-11T01:10:40.040Z,100.00
2022-10-11T01:13:20.852Z,100.00
2022-10-11T01:16:00.753Z,100.00
2022-10-11T01:18:37.958Z,100.00
2022-10-11T01:21:14.912Z,100.00
2022-10-11T01:24:37.299Z,100.00
2022-10-11T01:27:39.644Z,100.00
2022-10-11T01:30:35.069Z,100.00
2022-10-11T01:33:28.590Z,100.00
2022-10-11T01:36:08.010Z,100.00
2022-10-11T01:38:46.572Z,100.00
2022-10-11T01:41:24.411Z,100.00
2022-10-11T01:44:00.613Z,100.00
2022-10-11T01:46:39.955Z,100.00
2022-10-11T01:49:11.156Z,100.00
2022-10-11T01:51:47.339Z,100.00
2022-10-11T01:55:08.639Z,100.00
2022-10-11T01:57:59.273Z,100.00
2022-10-11T02:00:44.469Z,100.00
2022-10-11T02:03:33.666Z,100.00
2022-10-11T02:06:11.542Z,100.00
2022-10-11T02:08:54.512Z,100.00
2022-10-11T02:11:29.253Z,100.00
2022-10-11T02:14:05.992Z,100.00
2022-10-11T02:16:43.488Z,100.00
2022-10-11T02:19:21.653Z,100.00
2022-10-11T02:21:57.514Z,100.00
2022-10-11T02:24:31.304Z,100.00
2022-10-11T02:27:04.608Z,100.00
2022-10-11T02:29:38.958Z,100.00
2022-10-11T02:32:11.363Z,100.00
2022-10-11T02:34:50.738Z,100.00
2022-10-11T02:37:30.723Z,100.00
2022-10-11T02:40:09.300Z,100.00
2022-10-11T02:42:45.856Z,100.00
2022-10-11T02:45:20.770Z,100.00
2022-10-11T02:47:52.227Z,100.00
2022-10-11T02:50:26.719Z,100.00
2022-10-11T02:52:57.916Z,100.00
2022-10-11T02:55:31.200Z,100.00
2022-10-11T02:58:01.804Z,100.00
2022-10-11T03:00:33.916Z,100.00
2022-10-11T03:03:05.141Z,100.00
2022-10-11T03:05:40.892Z,100.00
2022-10-11T03:08:13.467Z,100.00
2022-10-11T03:10:44.689Z,100.00
2022-10-11T03:13:18.354Z,100.00
2022-10-11T03:16:07.405Z,100.00
2022-10-11T03:18:39.126Z,100.00
2022-10-11T03:21:12.475Z,100.00
2022-10-11T03:23:44.065Z,100.00
2022-10-11T03:26:15.063Z,100.00
2022-10-11T03:28:45.784Z,100.00
2022-10-11T03:31:18.721Z,100.00
2022-10-11T03:33:49.824Z,100.00
2022-10-11T03:36:23.718Z,100.00
2022-10-11T03:38:54.725Z,100.00
2022-10-11T03:41:29.831Z,100.00
2022-10-11T03:44:00.943Z,100.00
2022-10-11T03:46:32.482Z,100.00
2022-10-11T03:49:04.971Z,100.00
2022-10-11T03:51:39.570Z,100.00
2022-10-11T03:54:09.720Z,100.00
2022-10-11T03:56:40.784Z,100.00
2022-10-11T03:59:11.728Z,100.00
2022-10-11T04:01:43.096Z,100.00
2022-10-11T04:04:16.768Z,100.00
2022-10-11T04:06:50.798Z,100.00
2022-10-11T04:09:22.112Z,100.00
2022-10-11T04:11:53.461Z,100.00
2022-10-11T04:14:23.797Z,100.00
2022-10-11T04:16:59.542Z,100.00
2022-10-11T04:19:31.861Z,100.00
2022-10-11T04:22:08.479Z,100.00
2022-10-11T04:24:38.731Z,100.00
2022-10-11T04:27:10.542Z,100.00
2022-10-11T04:29:40.766Z,100.00
2022-10-11T04:32:12.420Z,100.00
2022-10-11T04:34:42.804Z,100.00
2022-10-11T04:37:16.375Z,100.00
2022-10-11T04:39:47.723Z,100.00
2022-10-11T04:42:20.320Z,100.00
2022-10-11T04:44:51.078Z,100.00
2022-10-11T04:47:22.023Z,100.00
2022-10-11T04:49:52.944Z,100.00
2022-10-11T04:52:26.409Z,100.00
2022-10-11T04:54:58.205Z,100.00
2022-10-11T04:57:28.764Z,100.00
2022-10-11T05:00:00.099Z,100.00
2022-10-11T05:02:30.798Z,100.00
2022-10-11T05:05:01.767Z,100.00
2022-10-11T05:07:35.381Z,100.00
2022-10-11T05:10:07.327Z,100.00
2022-10-11T05:12:39.123Z,100.00
2022-10-11T05:15:12.366Z,100.00
2022-10-11T05:17:43.777Z,100.00
2022-10-11T05:20:16.326Z,100.00
2022-10-11T05:22:49.590Z,100.00
2022-10-11T05:25:20.999Z,100.00
2022-10-11T05:27:52.381Z,100.00
2022-10-11T05:30:24.758Z,100.00
2022-10-11T05:32:56.203Z,100.00
2022-10-11T05:35:26.827Z,100.00
2022-10-11T05:38:01.039Z,100.00
2022-10-11T05:40:34.248Z,100.00
2022-10-11T05:43:04.942Z,100.00
2022-10-11T05:45:38.853Z,100.00
2022-10-11T05:48:10.955Z,100.00
2022-10-11T05:50:42.843Z,100.00
2022-10-11T05:53:16.460Z,100.00
2022-10-11T05:55:48.220Z,100.00
2022-10-11T05:58:20.230Z,100.00
2022-10-11T06:00:54.988Z,100.00
2022-10-11T06:03:26.927Z,100.00
2022-10-11T06:05:57.946Z,100.00
2022-10-11T06:08:32.100Z,100.00
2022-10-11T06:11:02.899Z,100.00
2022-10-11T06:13:34.418Z,100.00
2022-10-11T06:16:08.085Z,100.00
2022-10-11T06:18:38.767Z,100.00
2022-10-11T06:21:09.350Z,100.00
2022-10-11T06:23:43.098Z,100.00
2022-10-11T06:26:14.244Z,100.00
2022-10-11T06:28:45.505Z,100.00
2022-10-11T06:31:17.047Z,100.00
2022-10-11T06:33:48.718Z,100.00
2022-10-11T06:36:19.623Z,100.00
2022-10-11T06:38:55.079Z,100.00
2022-10-11T06:41:28.280Z,100.00
2022-10-11T06:43:59.604Z,100.00
2022-10-11T06:46:30.660Z,100.00
2022-10-11T06:49:01.997Z,100.00
2022-10-11T06:51:33.314Z,100.00
2022-10-11T06:54:10.024Z,100.00
2022-10-11T06:56:40.975Z,100.00
2022-10-11T06:59:12.280Z,100.00
2022-10-11T07:01:45.640Z,100.00
2022-10-11T07:04:16.089Z,100.00
2022-10-11T07:06:46.826Z,100.00
2022-10-11T07:09:20.420Z,100.00
2022-10-11T07:11:51.647Z,100.00
2022-10-11T07:14:22.053Z,100.00
2022-10-11T07:16:53.718Z,100.00
2022-10-11T07:19:24.951Z,100.00
2022-10-11T07:21:55.965Z,100.00
2022-10-11T07:24:29.755Z,100.00
2022-10-11T07:27:00.781Z,100.00
2022-10-11T07:29:32.717Z,100.00
2022-10-11T07:32:04.168Z,100.00
2022-10-11T07:34:36.244Z,100.00
2022-10-11T07:37:07.242Z,100.00
2022-10-11T07:39:42.145Z,100.00
2022-10-11T07:42:12.823Z,100.00
2022-10-11T07:44:44.092Z,100.00
2022-10-11T07:47:14.801Z,100.00
2022-10-11T07:49:45.830Z,100.00
2022-10-11T07:52:16.833Z,100.00
2022-10-11T07:54:51.533Z,100.00
2022-10-11T07:57:21.771Z,100.00
2022-10-11T07:59:53.306Z,100.00
2022-10-11T08:02:23.782Z,100.00
2022-10-11T08:04:55.259Z,100.00
2022-10-11T08:07:25.816Z,100.00
2022-10-11T08:09:59.790Z,100.00
2022-10-11T08:12:33.671Z,100.00
2022-10-11T08:15:04.481Z,100.00
2022-10-11T08:17:36.099Z,100.00
2022-10-11T08:20:06.691Z,100.00
2022-10-11T08:22:39.994Z,100.00
2022-10-11T08:25:13.725Z,100.00
2022-10-11T08:27:45.139Z,100.00
2022-10-11T08:30:17.361Z,100.00
2022-10-11T08:32:49.108Z,100.00
2022-10-11T08:35:20.262Z,100.00
2022-10-11T08:37:51.717Z,100.00
2022-10-11T08:40:30.433Z,100.00
2022-10-11T08:43:07.839Z,100.00
2022-10-11T08:45:46.340Z,100.00
2022-10-11T08:48:21.113Z,100.00
2022-10-11T08:50:56.019Z,100.00
2022-10-11T08:53:35.213Z,100.00
2022-10-11T08:56:10.172Z,100.00
2022-10-11T08:58:44.679Z,100.00
2022-10-11T09:01:20.394Z,100.00
2022-10-11T09:03:53.514Z,100.00
2022-10-11T09:06:34.233Z,100.00
2022-10-11T09:09:16.807Z,100.00
2022-10-11T09:12:06.689Z,100.00
2022-10-11T09:15:01.168Z,100.00
2022-10-11T09:17:46.290Z,100.00
2022-10-11T09:20:34.348Z,100.00
2022-10-11T09:23:08.322Z,100.00
2022-10-11T09:25:47.267Z,100.00
2022-10-11T09:28:31.263Z,100.00
2022-10-11T09:31:03.645Z,100.00
2022-10-11T09:33:39.095Z,100.00
2022-10-11T09:36:22.066Z,100.00
2022-10-11T09:39:06.341Z,100.00
2022-10-11T09:41:46.930Z,100.00
2022-10-11T09:44:27.980Z,100.00
2022-10-11T09:47:01.136Z,100.00
2022-10-11T09:49:36.359Z,100.00
2022-10-11T09:52:15.060Z,100.00
2022-10-11T09:54:50.091Z,100.00
2022-10-11T09:57:26.781Z,100.00
2022-10-11T10:00:10.070Z,100.00
2022-10-11T10:02:47.142Z,100.00
2022-10-11T10:05:23.674Z,100.00
2022-10-11T10:08:23.236Z,100.00
2022-10-11T10:11:03.751Z,100.00
2022-10-11T10:13:45.112Z,100.00
2022-10-11T10:16:28.848Z,100.00
2022-10-11T10:19:00.915Z,100.00
2022-10-11T10:21:34.830Z,100.00
2022-10-11T10:24:11.248Z,100.00
2022-10-11T10:26:42.478Z,100.00
2022-10-11T10:29:20.443Z,99.88
2022-10-11T10:32:15.200Z,100.00
2022-10-11T10:34:59.892Z,100.00
2022-10-11T10:37:35.402Z,100.00
2022-10-11T10:40:12.247Z,100.00
2022-10-11T10:42:43.651Z,99.84
2022-10-11T10:45:22.162Z,98.28
2022-10-11T10:48:12.702Z,98.79
2022-10-11T10:50:55.877Z,98.34
2022-10-11T10:53:35.572Z,97.81
2022-10-11T10:56:14.562Z,96.51
2022-10-11T10:58:56.865Z,94.10
2022-10-11T11:01:31.246Z,93.54
2022-10-11T11:04:18.599Z,93.31
2022-10-11T11:06:53.273Z,92.42
2022-10-11T11:09:40.847Z,95.23
2022-10-11T11:12:29.420Z,94.42
2022-10-11T11:15:06.589Z,92.69
2022-10-11T11:17:50.916Z,94.26
2022-10-11T11:20:36.672Z,92.47
2022-10-11T11:23:20.882Z,93.13
2022-10-11T11:26:00.664Z,91.99
2022-10-11T11:28:55.484Z,91.70
2022-10-11T11:31:43.001Z,90.05
2022-10-11T11:34:24.197Z,89.81
2022-10-11T11:37:01.594Z,90.16
2022-10-11T11:39:39.344Z,88.17
2022-10-11T11:42:17.079Z,89.87
2022-10-11T11:44:51.313Z,88.45
2022-10-11T11:47:27.752Z,89.32
2022-10-11T11:50:02.776Z,89.81
2022-10-11T11:52:41.905Z,89.08
2022-10-11T11:55:20.465Z,87.84
2022-10-11T11:58:07.663Z,88.75
2022-10-11T12:00:52.025Z,89.00
2022-10-11T12:03:28.953Z,88.91
2022-10-11T12:06:27.064Z,87.98
2022-10-11T12:09:09.578Z,87.76
2022-10-11T12:11:56.035Z,88.99
2022-10-11T12:14:38.200Z,87.92
2022-10-11T12:17:16.226Z,87.76
2022-10-11T12:20:16.639Z,87.94
2022-10-11T12:23:04.015Z,86.09
2022-10-11T12:26:16.040Z,86.18
2022-10-11T12:29:37.582Z,86.25
2022-10-11T12:32:51.263Z,86.53
2022-10-11T12:36:02.716Z,86.99
2022-10-11T12:38:40.274Z,85.88
2022-10-11T12:41:40.714Z,87.68
2022-10-11T12:44:24.342Z,87.53
2022-10-11T12:47:17.314Z,88.13
2022-10-11T12:50:03.831Z,85.21
2022-10-11T12:52:45.605Z,86.58
2022-10-11T12:55:33.074Z,87.95
2022-10-11T12:58:26.856Z,85.67
2022-10-11T13:01:21.840Z,87.33
2022-10-11T13:04:03.878Z,87.41
2022-10-11T13:06:39.276Z,87.40
2022-10-11T13:09:26.296Z,87.46
2022-10-11T13:12:02.555Z,90.58
2022-10-11T13:14:38.127Z,89.80
2022-10-11T13:17:19.650Z,87.94
2022-10-11T13:20:01.617Z,88.70
2022-10-11T13:22:31.996Z,88.19
2022-10-11T13:25:07.086Z,89.62
2022-10-11T13:27:41.065Z,87.65
2022-10-11T13:30:21.863Z,91.44
2022-10-11T13:32:56.333Z,90.95
2022-10-11T13:35:32.596Z,90.94
2022-10-11T13:38:05.666Z,91.50
2022-10-11T13:40:37.267Z,91.31
2022-10-11T13:43:09.220Z,93.38
2022-10-11T13:45:42.133Z,92.01
2022-10-11T13:48:19.530Z,92.54
2022-10-11T13:51:08.935Z,90.77
2022-10-11T13:53:41.154Z,90.65
2022-10-11T13:56:13.048Z,90.61
2022-10-11T13:58:49.658Z,91.78
2022-10-11T14:01:25.160Z,92.14
2022-10-11T14:04:03.699Z,92.08
2022-10-11T14:06:45.668Z,94.09
2022-10-11T14:09:26.650Z,92.95
2022-10-11T14:11:57.993Z,93.89
2022-10-11T14:14:45.085Z,95.08
2022-10-11T14:17:19.311Z,94.92
2022-10-11T14:20:12.003Z,93.43
2022-10-11T14:22:45.300Z,93.55
2022-10-11T14:25:16.388Z,94.86
2022-10-11T14:27:47.196Z,96.55
2022-10-11T14:30:25.740Z,97.04
2022-10-11T14:32:59.935Z,98.30
2022-10-11T14:35:43.494Z,97.74
2022-10-11T14:38:15.115Z,97.44
2022-10-11T14:40:45.980Z,98.09
2022-10-11T14:43:17.287Z,98.67
2022-10-11T14:45:49.573Z,97.67
2022-10-11T14:48:42.937Z,95.94
2022-10-11T14:51:17.526Z,97.39
2022-10-11T14:53:47.992Z,95.50
2022-10-11T14:56:21.663Z,96.47
2022-10-11T14:58:53.608Z,96.74
2022-10-11T15:01:24.393Z,97.43
2022-10-11T15:03:56.251Z,98.00
2022-10-11T15:06:39.529Z,96.88
2022-10-11T15:09:10.478Z,98.22
2022-10-11T15:11:41.174Z,100.00
2022-10-11T15:14:12.915Z,100.00
2022-10-11T15:16:47.015Z,100.00
2022-10-11T15:19:20.970Z,100.00
2022-10-11T15:21:54.083Z,100.00
2022-10-11T15:24:24.988Z,100.00
2022-10-11T15:26:55.963Z,100.00
2022-10-11T15:29:27.483Z,100.00
2022-10-11T15:31:57.989Z,100.00
2022-10-11T15:34:30.850Z,100.00
2022-10-11T15:37:04.505Z,100.00
2022-10-11T15:39:35.131Z,100.00
2022-10-11T15:42:06.978Z,100.00
2022-10-11T15:44:38.504Z,100.00
2022-10-11T15:47:09.304Z,100.00
2022-10-11T15:49:40.964Z,100.00
2022-10-11T15:52:14.743Z,100.00
2022-10-11T15:54:45.394Z,100.00
2022-10-11T15:57:15.929Z,100.00
2022-10-11T15:59:48.738Z,100.00
2022-10-11T16:02:19.791Z,100.00
2022-10-11T16:04:51.592Z,100.00
2022-10-11T16:07:24.925Z,100.00
2022-10-11T16:09:55.168Z,100.00
2022-10-11T16:12:26.170Z,100.00
2022-10-11T16:14:57.390Z,100.00
2022-10-11T16:17:28.336Z,100.00
2022-10-11T16:20:00.541Z,100.00
2022-10-11T16:22:33.617Z,100.00
2022-10-11T16:25:04.669Z,100.00
2022-10-11T16:27:35.831Z,100.00
2022-10-11T16:30:14.444Z,100.00
2022-10-11T16:32:45.379Z,100.00
2022-10-11T16:35:20.365Z,100.00
2022-10-11T16:37:53.647Z,100.00
2022-10-11T16:40:26.805Z,100.00
2022-10-11T16:42:58.516Z,100.00
2022-10-11T16:45:30.302Z,100.00
2022-10-11T16:48:02.439Z,100.00
2022-10-11T16:50:38.319Z,100.00
2022-10-11T16:53:15.818Z,100.00
2022-10-11T16:55:46.251Z,100.00
2022-10-11T16:58:18.010Z,100.00
2022-10-11T17:00:51.211Z,100.00
2022-10-11T17:03:22.174Z,100.00
2022-10-11T17:05:54.264Z,100.00
2022-10-11T17:08:32.640Z,100.00
2022-10-11T17:11:04.142Z,100.00
2022-10-11T17:13:35.557Z,100.00
2022-10-11T17:16:08.378Z,100.00
2022-10-11T17:18:39.528Z,100.00
2022-10-11T17:21:15.300Z,100.00
2022-10-11T17:23:49.260Z,100.00
2022-10-11T17:26:24.585Z,100.00
2022-10-11T17:28:55.538Z,100.00
2022-10-11T17:31:28.266Z,100.00
2022-10-11T17:34:02.159Z,100.00
2022-10-11T17:36:35.259Z,100.00
2022-10-11T17:39:12.007Z,100.00
2022-10-11T17:41:43.713Z,100.00
2022-10-11T17:44:18.211Z,100.00
2022-10-11T17:46:50.373Z,100.00
2022-10-11T17:49:21.244Z,100.00
2022-10-11T17:51:55.269Z,100.00
2022-10-11T17:54:30.491Z,100.00
2022-10-11T17:57:03.194Z,100.00
2022-10-11T17:59:35.618Z,100.00
2022-10-11T18:02:06.910Z,100.00
2022-10-11T18:04:38.646Z,100.00
2022-10-11T18:07:10.979Z,100.00
2022-10-11T18:09:44.826Z,100.00
2022-10-11T18:12:16.520Z,100.00
2022-10-11T18:14:48.005Z,100.00
2022-10-11T18:17:18.542Z,100.00
2022-10-11T18:19:48.972Z,100.00
2022-10-11T18:22:19.048Z,100.00
2022-10-11T18:24:51.828Z,100.00
2022-10-11T18:27:21.994Z,100.00
2022-10-11T18:29:52.270Z,100.00
2022-10-11T18:32:22.388Z,100.00
2022-10-11T18:34:52.945Z,100.00
2022-10-11T18:37:23.321Z,100.00
2022-10-11T18:39:56.369Z,100.00
2022-10-11T18:42:26.537Z,100.00
2022-10-11T18:44:57.318Z,100.00
2022-10-11T18:47:27.857Z,100.00
2022-10-11T18:49:58.057Z,100.00
2022-10-11T18:52:28.485Z,100.00
2022-10-11T18:55:03.480Z,100.00
2022-10-11T18:57:34.352Z,100.00
2022-10-11T19:00:16.829Z,100.00
2022-10-11T19:02:57.823Z,100.00
2022-10-11T19:05:28.191Z,100.00
2022-10-11T19:08:00.379Z,100.00
2022-10-11T19:10:33.314Z,100.00
2022-10-11T19:13:03.608Z,100.00
2022-10-11T19:15:34.419Z,100.00
2022-10-11T19:18:04.699Z,100.00
2022-10-11T19:20:37.455Z,100.00
2022-10-11T19:23:07.934Z,100.00
2022-10-11T19:25:41.231Z,100.00
2022-10-11T19:28:14.941Z,100.00
2022-10-11T19:30:47.863Z,100.00
2022-10-11T19:33:18.286Z,100.00
2022-10-11T19:35:56.818Z,100.00
2022-10-11T19:38:27.226Z,100.00
2022-10-11T19:41:00.280Z,100.00
2022-10-11T19:43:31.030Z,100.00
2022-10-11T19:46:04.637Z,100.00
2022-10-11T19:48:34.724Z,100.00
2022-10-11T19:51:06.110Z,100.00
2022-10-11T19:53:36.558Z,100.00
2022-10-11T19:56:12.365Z,100.00
2022-10-11T19:58:43.002Z,100.00
2022-10-11T20:01:16.521Z,100.00
2022-10-11T20:03:47.989Z,100.00
2022-10-11T20:06:18.655Z,100.00
2022-10-11T20:08:59.802Z,100.00
2022-10-11T20:11:42.336Z,100.00
2022-10-11T20:14:12.376Z,100.00
2022-10-11T20:16:42.699Z,100.00
2022-10-11T20:19:12.859Z,100.00
2022-10-11T20:21:42.945Z,100.00
2022-10-11T20:24:13.141Z,100.00
2022-10-11T20:26:46.614Z,100.00
2022-10-11T20:29:17.501Z,100.00
2022-10-11T20:31:47.724Z,100.00
2022-10-11T20:34:17.876Z,100.00
2022-10-11T20:36:49.288Z,100.00
2022-10-11T20:39:20.223Z,100.00
2022-10-11T20:41:53.231Z,100.00
2022-10-11T20:44:23.771Z,100.00
2022-10-11T20:46:54.228Z,100.00
2022-10-11T20:49:24.464Z,100.00
2022-10-11T20:51:54.756Z,100.00
2022-10-11T20:54:24.846Z,100.00
2022-10-11T20:56:57.768Z,100.00
2022-10-11T20:59:28.080Z,100.00
2022-10-11T21:01:58.341Z,100.00
2022-10-11T21:04:28.368Z,100.00
2022-10-11T21:06:58.575Z,100.00
2022-10-11T21:09:28.786Z,100.00
2022-10-11T21:12:03.183Z,100.00
2022-10-11T21:14:33.426Z,100.00
2022-10-11T21:17:03.644Z,100.00
2022-10-11T21:19:33.835Z,100.00
2022-10-11T21:22:04.044Z,100.00
2022-10-11T21:24:34.025Z,100.00
2022-10-11T21:27:07.041Z,100.00
2022-10-11T21:29:37.071Z,100.00
2022-10-11T21:32:10.821Z,100.00
2022-10-11T21:34:43.494Z,100.00
2022-10-11T21:37:13.759Z,100.00
2022-10-11T21:39:43.824Z,100.00
2022-10-11T21:42:16.680Z,100.00
2022-10-11T21:44:46.904Z,100.00
2022-10-11T21:47:17.819Z,100.00
2022-10-11T21:49:48.180Z,100.00
2022-10-11T21:52:18.454Z,100.00
2022-10-11T21:54:48.459Z,100.00
2022-10-11T21:57:21.168Z,100.00
2022-10-11T21:59:51.392Z,100.00
2022-10-11T22:02:21.514Z,100.00
2022-10-11T22:04:51.545Z,100.00
2022-10-11T22:10:09.534Z,100.00
2022-10-11T22:12:42.179Z,100.00
2022-10-11T22:15:13.645Z,100.00
2022-10-11T22:17:43.673Z,100.00
2022-10-11T22:20:14.034Z,100.00
2022-10-11T22:22:44.507Z,100.00
2022-10-11T22:25:14.671Z,100.00
2022-10-11T22:27:48.130Z,100.00
2022-10-11T22:30:18.464Z,100.00
2022-10-11T22:32:48.965Z,100.00
2022-10-11T22:35:19.112Z,100.00
2022-10-11T22:37:50.423Z,100.00
2022-10-11T22:40:20.969Z,100.00
2022-10-11T22:42:53.703Z,100.00
2022-10-11T22:45:24.423Z,100.00
2022-10-11T22:47:54.614Z,100.00
2022-10-11T22:50:24.948Z,100.00
2022-10-11T22:52:55.321Z,100.00
2022-10-11T22:55:26.262Z,100.00
2022-10-11T22:57:59.059Z,100.00
2022-10-11T23:00:32.634Z,100.00
2022-10-11T23:03:03.136Z,100.00
2022-10-11T23:05:33.364Z,100.00
2022-10-11T23:08:03.506Z,100.00
2022-10-11T23:10:35.079Z,100.00
2022-10-11T23:13:07.751Z,100.00
2022-10-11T23:15:38.447Z,100.00
2022-10-11T23:18:08.794Z,100.00
2022-10-11T23:20:40.251Z,100.00
2022-10-11T23:23:10.554Z,100.00
2022-10-11T23:25:40.725Z,100.00
2022-10-11T23:28:13.666Z,100.00
2022-10-11T23:30:47.553Z,100.00
2022-10-11T23:33:17.692Z,100.00
2022-10-11T23:35:47.694Z,100.00
2022-10-11T23:38:17.690Z,100.00
2022-10-11T23:40:47.732Z,100.00
2022-10-11T23:43:20.780Z,100.00
2022-10-11T23:45:52.197Z,100.00
2022-10-11T23:48:22.415Z,100.00
2022-10-11T23:50:52.561Z,100.00
2022-10-11T23:53:22.537Z,100.00
2022-10-11T23:55:52.515Z,100.00
2022-10-11T23:58:25.143Z,100.00
